LECA weather

La Nava - Corral De Ayllón Airfield
Corral de Ayllón, Castilla y León, Spain

Public forecast

Using degrees Celsius for public forecast. Weather courtesy of forecast.io.

Closest aviation weather report (METAR) to La Nava - Corral De Ayllón Airfield

Closest report is Torrejón Airport, 54.9 nm (101.6 km) S. Retrieved 2019/10/23 13:00 UTC (60 minutes ago):

LETO 231300Z 24003KT 9999 FEW020 SCT030 BKN045 10/08 Q1008 NOSIG

Closest aviation forecast (TAF) to La Nava - Corral De Ayllón Airfield

Closest forecast is Torrejón Airport, 54.9 nm (101.6 km) S. Retrieved 2019/10/23 12:27 UTC (2 hours ago):

TAF LETO 231100Z 2312/2412 VRB05KT 9999 BKN025 TX15/2412Z TN07/2406Z PROB40 TEMPO 2312/2403 3000 RADZ BR BKN010 PROB30 TEMPO 2404/2408 0800 FG OVC008